Time;durP1;ratioP1;P1;durP2;ratioP2;P2;SDS_P1;SDS_P2;PMS_P1;PMS_P2;Temp;Humidity;BMP_temperature;BMP_pressure;BME280_temperature;BME280_humidity;BME280_pressure;Samples;Min_cycle;Max_cycle;Signal;HPM_P1;HPM_P2
2022/09/17 00:01:00;;;;;;;12.10;4.13;;;;;;;;;;5054832;28;20389;-43
2022/09/17 00:03:27;;;;;;;12.30;5.07;;;;;;;;;;5054644;28;20499;-44
2022/09/17 00:06:22;;;;;;;9.03;3.80;;;;;;;;;;5054730;28;20904;-44
2022/09/17 00:08:49;;;;;;;10.13;4.40;;;;;;;;;;5054267;28;20420;-45
2022/09/17 00:11:16;;;;;;;12.60;4.50;;;;;;;;;;5054525;28;20764;-45
2022/09/17 00:13:43;;;;;;;9.53;4.73;;;;;;;;;;5054603;28;20402;-45
2022/09/17 00:16:09;;;;;;;12.90;5.53;;;;;;;;;;5054710;28;20783;-45
2022/09/17 00:18:39;;;;;;;6.83;4.53;;;;;;;;;;5054163;28;20834;-45
2022/09/17 00:21:05;;;;;;;10.17;4.60;;;;;;;;;;5054599;28;20429;-46
2022/09/17 00:23:31;;;;;;;14.60;5.97;;;;;;;;;;5054313;28;20401;-46
2022/09/17 00:25:58;;;;;;;12.93;4.90;;;;;;;;;;5054246;28;20433;-46
2022/09/17 00:28:24;;;;;;;8.23;4.40;;;;;;;;;;5053699;28;20455;-45
2022/09/17 00:30:50;;;;;;;11.07;5.17;;;;;;;;;;5054347;28;20410;-46
2022/09/17 00:33:19;;;;;;;9.17;5.07;;;;;;;;;;5054322;28;20421;-45
2022/09/17 00:35:44;;;;;;;11.43;5.63;;;;;;;;;;5054109;28;20406;-46
2022/09/17 00:38:11;;;;;;;7.63;4.10;;;;;;;;;;5053472;28;20590;-45
2022/09/17 00:40:37;;;;;;;10.47;4.10;;;;;;;;;;5054079;28;20776;-46
2022/09/17 00:43:03;;;;;;;6.60;3.50;;;;;;;;;;5054144;28;20397;-45
2022/09/17 00:45:31;;;;;;;6.70;3.10;;;;;;;;;;5054246;28;20760;-45
2022/09/17 00:47:57;;;;;;;8.73;3.43;;;;;;;;;;5053415;28;20426;-46
2022/09/17 00:50:29;;;;;;;5.57;3.77;;;;;;;;;;5053761;28;20401;-45
2022/09/17 00:52:56;;;;;;;5.10;3.37;;;;;;;;;;5053797;28;20901;-45
2022/09/17 00:55:24;;;;;;;7.60;3.30;;;;;;;;;;5053792;28;20467;-46
2022/09/17 00:57:52;;;;;;;5.87;3.27;;;;;;;;;;5053064;28;20886;-45
2022/09/17 01:00:19;;;;;;;7.60;3.10;;;;;;;;;;5053685;28;20943;-46
2022/09/17 01:02:45;;;;;;;6.10;3.13;;;;;;;;;;5052831;28;20432;-45
2022/09/17 01:05:12;;;;;;;13.80;3.87;;;;;;;;;;5053018;28;20452;-45
2022/09/17 01:07:52;;;;;;;9.47;3.30;;;;;;;;;;5052442;28;20437;-46
2022/09/17 01:10:18;;;;;;;9.80;3.70;;;;;;;;;;5052929;28;20484;-45
2022/09/17 01:12:50;;;;;;;9.00;3.30;;;;;;;;;;5053028;28;20490;-45
2022/09/17 01:15:39;;;;;;;8.93;2.97;;;;;;;;;;5052764;28;20948;-46
2022/09/17 01:18:08;;;;;;;12.57;3.00;;;;;;;;;;5052732;28;20822;-46
2022/09/17 01:21:00;;;;;;;8.60;4.47;;;;;;;;;;5052643;28;20394;-45
2022/09/17 01:23:29;;;;;;;6.80;3.20;;;;;;;;;;5052613;28;20402;-45
2022/09/17 01:26:04;;;;;;;9.60;3.50;;;;;;;;;;5052631;28;20436;-45
2022/09/17 01:28:45;;;;;;;6.17;3.40;;;;;;;;;;5052058;28;20412;-46
2022/09/17 01:31:14;;;;;;;8.47;3.03;;;;;;;;;;5052739;28;20424;-45
2022/09/17 01:33:55;;;;;;;7.23;3.90;;;;;;;;;;5052285;28;20915;-45
2022/09/17 01:36:35;;;;;;;8.80;3.50;;;;;;;;;;5052357;28;20444;-45
2022/09/17 01:39:01;;;;;;;7.30;3.97;;;;;;;;;;5052239;28;20456;-45
2022/09/17 01:41:37;;;;;;;10.73;4.43;;;;;;;;;;5052685;28;20491;-45
2022/09/17 01:44:11;;;;;;;12.87;4.90;;;;;;;;;;5051510;28;20401;-45
2022/09/17 01:46:46;;;;;;;6.77;5.30;;;;;;;;;;5048213;28;20421;-46
2022/09/17 01:49:14;;;;;;;12.17;5.17;;;;;;;;;;5040026;28;20405;-46
2022/09/17 01:51:44;;;;;;;17.17;6.20;;;;;;;;;;5052226;28;20904;-45
2022/09/17 01:54:14;;;;;;;12.10;6.13;;;;;;;;;;5035407;28;20434;-45
2022/09/17 01:56:44;;;;;;;12.33;5.93;;;;;;;;;;5031828;28;20410;-45
2022/09/17 01:59:18;;;;;;;22.60;7.47;;;;;;;;;;5031465;28;20406;-45
2022/09/17 02:01:46;;;;;;;13.23;6.07;;;;;;;;;;5033223;28;21448;-45
2022/09/17 02:04:20;;;;;;;11.00;6.40;;;;;;;;;;5039901;28;20420;-45
2022/09/17 02:06:51;;;;;;;20.37;7.13;;;;;;;;;;5044493;28;21019;-46
2022/09/17 02:09:23;;;;;;;14.13;6.40;;;;;;;;;;5032380;28;20449;-46
2022/09/17 02:11:54;;;;;;;13.07;5.70;;;;;;;;;;5039128;28;20424;-45
2022/09/17 02:14:33;;;;;;;10.60;6.47;;;;;;;;;;5051357;28;20433;-45
2022/09/17 02:17:06;;;;;;;11.90;6.50;;;;;;;;;;5041383;28;20458;-45
2022/09/17 02:19:36;;;;;;;16.17;7.13;;;;;;;;;;5031521;28;20485;-45
2022/09/17 02:22:02;;;;;;;16.13;6.67;;;;;;;;;;5040712;28;20783;-46
2022/09/17 02:24:35;;;;;;;16.17;6.63;;;;;;;;;;5050991;28;20398;-46
2022/09/17 02:27:27;;;;;;;26.00;6.90;;;;;;;;;;5042516;28;20874;-45
2022/09/17 02:29:53;;;;;;;18.10;6.83;;;;;;;;;;5031256;28;20425;-45
2022/09/17 02:32:19;;;;;;;12.60;5.93;;;;;;;;;;5032749;28;20420;-45
2022/09/17 02:34:46;;;;;;;7.20;5.50;;;;;;;;;;5031264;28;20787;-46
2022/09/17 02:37:12;;;;;;;11.67;5.40;;;;;;;;;;5040049;28;20462;-45
2022/09/17 02:39:38;;;;;;;17.30;5.67;;;;;;;;;;5051493;28;20487;-45
2022/09/17 02:42:16;;;;;;;9.27;4.60;;;;;;;;;;5043279;28;20443;-46
2022/09/17 02:44:52;;;;;;;15.27;4.90;;;;;;;;;;5031177;28;20405;-46
2022/09/17 02:47:17;;;;;;;8.33;4.00;;;;;;;;;;5039263;28;20436;-45
2022/09/17 02:49:56;;;;;;;14.20;5.20;;;;;;;;;;5038401;28;20487;-45
2022/09/17 02:52:30;;;;;;;10.77;5.00;;;;;;;;;;5039871;28;20416;-46
2022/09/17 02:55:11;;;;;;;11.00;4.43;;;;;;;;;;5051070;28;20489;-45
2022/09/17 02:57:40;;;;;;;7.57;4.03;;;;;;;;;;5039490;28;20504;-45
2022/09/17 03:00:06;;;;;;;11.17;4.53;;;;;;;;;;5030977;28;20410;-46
2022/09/17 03:02:51;;;;;;;10.77;4.50;;;;;;;;;;5039839;28;20433;-46
2022/09/17 03:05:18;;;;;;;12.63;5.20;;;;;;;;;;5050679;28;20393;-45
2022/09/17 03:07:44;;;;;;;15.50;3.73;;;;;;;;;;5039231;28;20856;-45
2022/09/17 03:10:11;;;;;;;17.07;4.40;;;;;;;;;;5030832;28;20482;-45
2022/09/17 03:12:38;;;;;;;12.13;4.50;;;;;;;;;;5040226;28;20424;-45
2022/09/17 03:15:04;;;;;;;25.93;4.27;;;;;;;;;;5052446;28;20480;-46
2022/09/17 03:17:30;;;;;;;14.93;3.90;;;;;;;;;;5046284;28;20884;-45
2022/09/17 03:19:56;;;;;;;16.17;4.67;;;;;;;;;;5035041;28;20490;-45
2022/09/17 03:22:22;;;;;;;13.13;3.70;;;;;;;;;;5040746;28;20463;-45
2022/09/17 03:24:48;;;;;;;10.73;5.03;;;;;;;;;;5054577;28;20934;-45
2022/09/17 03:27:14;;;;;;;8.70;4.23;;;;;;;;;;5049019;28;21028;-46
2022/09/17 03:29:40;;;;;;;11.33;4.23;;;;;;;;;;5035042;28;20398;-45
2022/09/17 03:32:06;;;;;;;8.03;4.70;;;;;;;;;;5037943;28;20416;-45
2022/09/17 03:34:32;;;;;;;14.17;4.90;;;;;;;;;;5054344;28;20405;-45
2022/09/17 03:36:58;;;;;;;13.93;4.60;;;;;;;;;;5052493;28;20461;-45
2022/09/17 03:39:24;;;;;;;16.37;5.07;;;;;;;;;;5034239;28;20398;-46
2022/09/17 03:41:50;;;;;;;9.43;5.00;;;;;;;;;;5034438;28;20434;-46
2022/09/17 03:44:18;;;;;;;11.10;4.47;;;;;;;;;;5053746;28;20917;-45
2022/09/17 03:46:44;;;;;;;17.47;4.73;;;;;;;;;;5054572;28;20417;-45
2022/09/17 03:49:10;;;;;;;10.90;4.20;;;;;;;;;;5053576;28;20413;-45
2022/09/17 03:51:36;;;;;;;13.63;4.53;;;;;;;;;;5054247;28;20446;-45
2022/09/17 03:54:02;;;;;;;11.50;4.60;;;;;;;;;;5036183;28;20911;-45
2022/09/17 03:56:28;;;;;;;12.63;5.00;;;;;;;;;;5033805;28;20476;-45
2022/09/17 03:59:00;;;;;;;11.90;4.10;;;;;;;;;;5049939;28;20526;-45
2022/09/17 04:01:27;;;;;;;12.23;3.83;;;;;;;;;;5053875;28;20416;-45
2022/09/17 04:03:53;;;;;;;7.67;4.30;;;;;;;;;;5037834;28;20488;-45
2022/09/17 04:06:19;;;;;;;12.10;4.30;;;;;;;;;;5032776;28;20961;-45
2022/09/17 04:08:45;;;;;;;12.63;5.17;;;;;;;;;;5047642;28;20421;-45
2022/09/17 04:11:11;;;;;;;10.87;3.93;;;;;;;;;;5054187;28;20496;-46
2022/09/17 04:13:37;;;;;;;12.23;4.23;;;;;;;;;;5040907;28;20868;-46
2022/09/17 04:16:03;;;;;;;10.63;4.57;;;;;;;;;;5034124;28;20517;-45
2022/09/17 04:18:29;;;;;;;10.90;4.23;;;;;;;;;;5044086;28;20820;-45
2022/09/17 04:20:56;;;;;;;21.20;4.20;;;;;;;;;;5054046;28;20421;-45
2022/09/17 04:23:22;;;;;;;12.53;3.90;;;;;;;;;;5048027;28;20440;-46
2022/09/17 04:25:48;;;;;;;13.63;3.57;;;;;;;;;;5053178;28;20893;-45
2022/09/17 04:28:14;;;;;;;6.57;3.00;;;;;;;;;;5052405;28;20432;-45
2022/09/17 04:30:42;;;;;;;16.00;3.60;;;;;;;;;;5053779;28;20946;-45
2022/09/17 04:33:08;;;;;;;10.77;3.10;;;;;;;;;;5053200;28;20904;-45
2022/09/17 04:35:34;;;;;;;10.67;3.67;;;;;;;;;;5053605;28;20899;-45
2022/09/17 04:38:00;;;;;;;7.00;2.83;;;;;;;;;;5047206;28;20446;-45
2022/09/17 04:40:27;;;;;;;6.63;3.00;;;;;;;;;;5033784;28;20777;-45
2022/09/17 04:42:54;;;;;;;9.33;3.57;;;;;;;;;;5037414;28;20504;-45
2022/09/17 04:45:20;;;;;;;9.53;2.73;;;;;;;;;;5053364;28;20389;-45
2022/09/17 04:47:46;;;;;;;11.57;2.67;;;;;;;;;;5049080;28;20540;-45
2022/09/17 04:50:12;;;;;;;9.93;3.13;;;;;;;;;;5033276;28;20781;-45
2022/09/17 04:52:41;;;;;;;9.60;2.70;;;;;;;;;;5034914;28;20438;-45
2022/09/17 04:55:08;;;;;;;6.90;2.53;;;;;;;;;;5052008;28;20844;-45
2022/09/17 04:57:34;;;;;;;7.43;2.67;;;;;;;;;;5052043;28;20449;-45
2022/09/17 05:00:00;;;;;;;19.03;2.97;;;;;;;;;;5053147;28;20489;-45
2022/09/17 05:02:26;;;;;;;4.70;2.20;;;;;;;;;;5053326;28;20486;-45
2022/09/17 05:04:52;;;;;;;8.23;2.03;;;;;;;;;;5052487;28;20417;-45
2022/09/17 05:07:18;;;;;;;12.53;3.90;;;;;;;;;;5052431;28;20536;-45
2022/09/17 05:09:44;;;;;;;6.93;1.90;;;;;;;;;;5034648;28;20422;-45
2022/09/17 05:12:10;;;;;;;9.83;1.90;;;;;;;;;;5033034;28;20406;-45
2022/09/17 05:14:36;;;;;;;6.30;2.00;;;;;;;;;;5049414;28;20425;-45
2022/09/17 05:17:02;;;;;;;8.40;2.17;;;;;;;;;;5053025;28;20461;-45
2022/09/17 05:19:28;;;;;;;16.40;2.47;;;;;;;;;;5037229;28;20497;-45
2022/09/17 05:21:54;;;;;;;16.13;4.20;;;;;;;;;;5033075;28;20490;-45
2022/09/17 05:24:20;;;;;;;8.87;3.20;;;;;;;;;;5045700;28;20843;-45
2022/09/17 05:26:46;;;;;;;10.63;2.37;;;;;;;;;;5052528;28;20417;-45
2022/09/17 05:29:12;;;;;;;7.87;2.40;;;;;;;;;;5050559;28;20410;-45
2022/09/17 05:31:38;;;;;;;16.13;2.20;;;;;;;;;;5052086;28;20414;-45
2022/09/17 05:34:04;;;;;;;10.73;2.03;;;;;;;;;;5050488;28;20409;-45
2022/09/17 05:36:30;;;;;;;8.53;2.10;;;;;;;;;;5051942;28;20406;-45
2022/09/17 05:38:56;;;;;;;8.73;2.50;;;;;;;;;;5042216;28;20462;-45
2022/09/17 05:41:22;;;;;;;7.13;2.13;;;;;;;;;;5043074;28;20410;-45
2022/09/17 05:43:48;;;;;;;6.50;1.90;;;;;;;;;;5052360;28;20881;-45
2022/09/17 05:46:14;;;;;;;5.13;2.27;;;;;;;;;;5050361;28;20421;-45
2022/09/17 05:48:40;;;;;;;10.80;2.20;;;;;;;;;;5040414;28;20786;-45
2022/09/17 05:51:06;;;;;;;4.03;2.10;;;;;;;;;;5052380;28;20408;-45
2022/09/17 05:53:32;;;;;;;8.83;2.07;;;;;;;;;;5052132;28;20398;-46
2022/09/17 05:55:58;;;;;;;9.17;2.23;;;;;;;;;;5052079;28;20511;-45
2022/09/17 05:58:24;;;;;;;9.97;2.97;;;;;;;;;;5050269;28;20837;-45
2022/09/17 06:00:51;;;;;;;8.87;2.10;;;;;;;;;;5052156;28;20409;-45
2022/09/17 06:03:17;;;;;;;14.43;2.43;;;;;;;;;;5035342;28;20426;-46
2022/09/17 06:05:52;;;;;;;10.67;2.90;;;;;;;;;;5032138;28;20797;-45
2022/09/17 06:08:18;;;;;;;6.67;1.90;;;;;;;;;;5048337;28;20444;-48
2022/09/17 06:10:44;;;;;;;8.73;2.70;;;;;;;;;;5051970;28;20928;-46
2022/09/17 06:13:10;;;;;;;7.40;2.33;;;;;;;;;;5036550;28;20450;-47
2022/09/17 06:15:36;;;;;;;12.70;2.30;;;;;;;;;;5031720;28;20902;-47
2022/09/17 06:18:02;;;;;;;8.20;2.30;;;;;;;;;;5044391;28;20453;-48
2022/09/17 06:20:28;;;;;;;7.90;2.47;;;;;;;;;;5051694;28;20775;-49
2022/09/17 06:22:57;;;;;;;8.50;2.20;;;;;;;;;;5039689;28;20422;-48
2022/09/17 06:25:23;;;;;;;4.83;1.67;;;;;;;;;;5031625;28;20399;-47
2022/09/17 06:27:49;;;;;;;8.47;2.20;;;;;;;;;;5042252;28;20514;-46
2022/09/17 06:30:15;;;;;;;7.47;1.90;;;;;;;;;;5051440;28;20430;-47
2022/09/17 06:32:41;;;;;;;6.63;2.30;;;;;;;;;;5042077;28;20601;-49
2022/09/17 06:35:07;;;;;;;8.30;2.00;;;;;;;;;;5032069;28;20418;-49
2022/09/17 06:37:35;;;;;;;9.37;2.33;;;;;;;;;;5039672;28;20457;-48
2022/09/17 06:40:01;;;;;;;6.40;2.30;;;;;;;;;;5051938;28;20405;-48
2022/09/17 06:42:30;;;;;;;10.77;3.50;;;;;;;;;;5044879;28;20419;-48
2022/09/17 06:44:57;;;;;;;7.47;2.33;;;;;;;;;;5032083;28;20417;-46
2022/09/17 06:47:24;;;;;;;12.67;2.57;;;;;;;;;;5037038;28;20445;-47
2022/09/17 06:49:50;;;;;;;6.97;2.10;;;;;;;;;;5050363;28;20416;-47
2022/09/17 06:52:16;;;;;;;6.40;2.17;;;;;;;;;;5045896;28;20430;-48
2022/09/17 06:54:42;;;;;;;8.63;2.33;;;;;;;;;;5031791;28;20410;-48
2022/09/17 06:57:08;;;;;;;6.63;2.10;;;;;;;;;;5034444;28;20454;-43
2022/09/17 06:59:34;;;;;;;11.37;2.90;;;;;;;;;;5051176;28;20414;-48
2022/09/17 07:02:00;;;;;;;12.70;3.10;;;;;;;;;;5048044;28;20437;-45
2022/09/17 07:04:26;;;;;;;6.47;2.93;;;;;;;;;;5040856;28;20459;-46
2022/09/17 07:06:52;;;;;;;10.53;3.00;;;;;;;;;;5032154;28;20508;-45
2022/09/17 07:09:18;;;;;;;6.47;2.60;;;;;;;;;;5051167;28;20401;-46
2022/09/17 07:11:44;;;;;;;10.43;3.00;;;;;;;;;;5051579;28;20389;-45
2022/09/17 07:14:10;;;;;;;7.10;2.50;;;;;;;;;;5031876;28;20969;-45
2022/09/17 07:16:36;;;;;;;11.87;1.70;;;;;;;;;;5031418;28;20418;-45
2022/09/17 07:19:03;;;;;;;6.87;2.30;;;;;;;;;;5048409;28;20459;-45
2022/09/17 07:21:29;;;;;;;6.93;2.40;;;;;;;;;;5051701;28;20752;-46
2022/09/17 07:23:55;;;;;;;2.90;2.07;;;;;;;;;;5038344;28;20815;-45
2022/09/17 07:26:20;;;;;;;5.87;1.90;;;;;;;;;;5051522;28;20765;-45
2022/09/17 07:28:47;;;;;;;6.10;2.03;;;;;;;;;;5035940;28;20422;-45
2022/09/17 07:31:13;;;;;;;18.57;3.83;;;;;;;;;;5031574;28;20816;-45
2022/09/17 07:33:39;;;;;;;4.80;1.93;;;;;;;;;;5032082;28;20846;-45
2022/09/17 07:36:07;;;;;;;8.03;2.70;;;;;;;;;;5031553;28;20521;-45
2022/09/17 07:38:34;;;;;;;4.97;1.70;;;;;;;;;;5040650;28;20547;-45
2022/09/17 07:41:03;;;;;;;7.50;2.87;;;;;;;;;;5051301;28;20458;-46
2022/09/17 07:43:31;;;;;;;6.57;2.63;;;;;;;;;;5048417;28;20420;-45
2022/09/17 07:45:57;;;;;;;7.03;2.33;;;;;;;;;;5051358;28;20428;-45
2022/09/17 07:48:24;;;;;;;15.93;2.60;;;;;;;;;;5040448;28;20415;-45
2022/09/17 07:50:50;;;;;;;5.13;2.10;;;;;;;;;;5031384;28;20436;-46
2022/09/17 07:53:17;;;;;;;6.27;2.70;;;;;;;;;;5039456;28;20917;-46
2022/09/17 07:55:43;;;;;;;6.60;2.10;;;;;;;;;;5051129;28;20438;-46
2022/09/17 07:58:09;;;;;;;8.03;2.50;;;;;;;;;;5048593;28;20470;-46
2022/09/17 08:00:35;;;;;;;8.50;2.57;;;;;;;;;;5042262;28;20932;-44
2022/09/17 08:03:01;;;;;;;2.33;1.80;;;;;;;;;;5042774;28;20406;-44
2022/09/17 08:05:27;;;;;;;6.17;2.20;;;;;;;;;;5052479;28;20415;-44
2022/09/17 08:07:54;;;;;;;5.97;1.90;;;;;;;;;;5053238;28;20464;-45
2022/09/17 08:10:21;;;;;;;9.60;3.20;;;;;;;;;;5042362;28;20977;-48
2022/09/17 08:12:48;;;;;;;4.47;2.37;;;;;;;;;;5045613;28;20442;-44
2022/09/17 08:15:18;;;;;;;6.10;2.37;;;;;;;;;;5034349;28;20405;-44
2022/09/17 08:17:45;;;;;;;2.57;1.60;;;;;;;;;;5040406;28;20458;-49
2022/09/17 08:20:11;;;;;;;11.00;2.20;;;;;;;;;;5050796;28;20395;-49
2022/09/17 08:22:37;;;;;;;5.20;2.07;;;;;;;;;;5045508;28;20441;-49
2022/09/17 08:25:04;;;;;;;12.50;3.70;;;;;;;;;;5033893;28;20438;-47
2022/09/17 08:27:30;;;;;;;8.93;2.03;;;;;;;;;;5045049;28;20457;-47
2022/09/17 08:29:56;;;;;;;7.80;1.63;;;;;;;;;;5052193;28;21014;-46
2022/09/17 08:32:22;;;;;;;7.33;1.50;;;;;;;;;;5049129;28;20475;-47
2022/09/17 08:34:48;;;;;;;7.07;1.57;;;;;;;;;;5053935;28;20403;-46
2022/09/17 08:37:15;;;;;;;10.53;2.83;;;;;;;;;;5052103;28;20831;-46
2022/09/17 08:39:41;;;;;;;2.53;1.40;;;;;;;;;;5046004;28;20396;-45
2022/09/17 08:42:26;;;;;;;4.93;1.43;;;;;;;;;;5047923;28;20409;-46
2022/09/17 08:44:52;;;;;;;4.70;2.27;;;;;;;;;;5053650;28;20413;-46
2022/09/17 08:47:26;;;;;;;1.57;1.00;;;;;;;;;;5045709;28;20472;-46
2022/09/17 08:49:53;;;;;;;2.03;1.53;;;;;;;;;;5033472;28;20936;-45
2022/09/17 08:52:26;;;;;;;4.20;1.43;;;;;;;;;;5040613;28;20872;-47
2022/09/17 08:54:59;;;;;;;10.13;1.70;;;;;;;;;;5051876;28;20501;-44
2022/09/17 08:57:25;;;;;;;2.80;1.60;;;;;;;;;;5049992;28;20990;-45
2022/09/17 09:00:01;;;;;;;4.13;1.53;;;;;;;;;;5038101;28;20421;-46
2022/09/17 09:02:27;;;;;;;4.87;1.30;;;;;;;;;;5032823;28;20431;-46
2022/09/17 09:05:17;;;;;;;2.53;1.37;;;;;;;;;;5039391;28;20510;-45
2022/09/17 09:07:46;;;;;;;2.80;1.10;;;;;;;;;;5032767;28;20833;-47
2022/09/17 09:10:19;;;;;;;4.63;1.90;;;;;;;;;;5044697;28;20413;-46
2022/09/17 09:12:45;;;;;;;8.23;1.77;;;;;;;;;;5052545;28;20422;-47
2022/09/17 09:15:18;;;;;;;5.27;1.27;;;;;;;;;;5043707;28;20397;-45
2022/09/17 09:17:49;;;;;;;3.93;1.30;;;;;;;;;;5047873;28;20827;-46
2022/09/17 09:20:16;;;;;;;8.90;1.60;;;;;;;;;;5036503;28;20519;-45
2022/09/17 09:22:49;;;;;;;5.20;1.60;;;;;;;;;;5051032;28;20419;-46
2022/09/17 09:25:16;;;;;;;5.97;1.93;;;;;;;;;;5048302;28;20421;-50
2022/09/17 09:27:49;;;;;;;7.83;1.83;;;;;;;;;;5050176;28;20451;-49
2022/09/17 09:30:22;;;;;;;4.50;2.00;;;;;;;;;;5035027;28;20435;-49
2022/09/17 09:32:55;;;;;;;4.83;1.60;;;;;;;;;;5051796;28;20503;-50
2022/09/17 09:35:23;;;;;;;4.30;1.40;;;;;;;;;;5052896;28;20478;-48
2022/09/17 09:37:58;;;;;;;4.93;2.17;;;;;;;;;;5046253;28;20446;-44
2022/09/17 09:40:24;;;;;;;8.70;1.57;;;;;;;;;;5052320;28;20399;-44
2022/09/17 09:42:53;;;;;;;6.00;1.50;;;;;;;;;;5048801;28;20388;-44
2022/09/17 09:45:27;;;;;;;4.17;1.37;;;;;;;;;;5052679;28;20777;-45
2022/09/17 09:48:19;;;;;;;3.23;1.73;;;;;;;;;;5048751;28;20499;-44
2022/09/17 09:50:50;;;;;;;3.17;1.27;;;;;;;;;;5041803;28;20399;-44
2022/09/17 09:53:22;;;;;;;4.10;1.10;;;;;;;;;;5052569;28;20398;-44
2022/09/17 09:55:59;;;;;;;1.77;1.27;;;;;;;;;;5051676;28;20467;-44
2022/09/17 09:58:36;;;;;;;4.70;1.17;;;;;;;;;;5051171;28;20457;-45
2022/09/17 10:01:02;;;;;;;2.80;1.53;;;;;;;;;;5039874;28;20468;-44
2022/09/17 10:03:31;;;;;;;4.30;1.33;;;;;;;;;;5040196;28;20442;-44
2022/09/17 10:05:59;;;;;;;5.50;2.53;;;;;;;;;;5051537;28;20780;-44
2022/09/17 10:08:26;;;;;;;6.90;1.20;;;;;;;;;;5041514;28;20423;-44
2022/09/17 10:10:56;;;;;;;5.33;1.13;;;;;;;;;;5043916;28;20424;-47
2022/09/17 10:13:24;;;;;;;8.60;1.70;;;;;;;;;;5041304;28;20444;-44
2022/09/17 10:15:50;;;;;;;2.57;1.20;;;;;;;;;;5050333;28;20485;-44
2022/09/17 10:18:20;;;;;;;3.90;1.20;;;;;;;;;;5035858;28;20452;-44
2022/09/17 10:20:50;;;;;;;2.33;1.27;;;;;;;;;;5031993;28;20430;-44
2022/09/17 10:23:16;;;;;;;2.50;1.20;;;;;;;;;;5045976;28;20912;-44
2022/09/17 10:25:43;;;;;;;6.93;1.20;;;;;;;;;;5049304;28;20425;-44
2022/09/17 10:28:29;;;;;;;10.00;1.40;;;;;;;;;;5032900;28;20426;-46
2022/09/17 10:31:08;;;;;;;2.73;1.10;;;;;;;;;;5051439;28;20405;-44
2022/09/17 10:33:35;;;;;;;2.63;1.10;;;;;;;;;;5048302;28;20432;-45
2022/09/17 10:36:06;;;;;;;6.90;1.20;;;;;;;;;;5049856;28;20436;-48
2022/09/17 10:38:34;;;;;;;1.67;0.97;;;;;;;;;;5044876;28;20488;-46
2022/09/17 10:41:16;;;;;;;1.57;0.97;;;;;;;;;;5049494;28;20833;-46
2022/09/17 10:43:43;;;;;;;2.40;1.10;;;;;;;;;;5037196;28;20416;-47
2022/09/17 10:46:14;;;;;;;2.20;0.90;;;;;;;;;;5050040;28;20434;-47
2022/09/17 10:48:46;;;;;;;4.00;1.70;;;;;;;;;;5041439;28;20924;-46
2022/09/17 10:51:20;;;;;;;2.97;1.10;;;;;;;;;;5030973;28;20465;-46
2022/09/17 10:54:12;;;;;;;4.23;1.13;;;;;;;;;;5031938;28;20966;-46
2022/09/17 10:56:40;;;;;;;3.77;0.90;;;;;;;;;;5039405;28;20459;-47
2022/09/17 10:59:11;;;;;;;7.00;1.13;;;;;;;;;;5036454;28;20443;-46
2022/09/17 11:01:47;;;;;;;6.63;1.00;;;;;;;;;;5043159;28;20432;-46
2022/09/17 11:04:28;;;;;;;3.87;1.40;;;;;;;;;;5049602;28;20444;-46
2022/09/17 11:07:23;;;;;;;1.73;1.00;;;;;;;;;;5051060;28;20932;-45
2022/09/17 11:09:49;;;;;;;3.67;0.77;;;;;;;;;;5027759;28;20410;-46
2022/09/17 11:12:34;;;;;;;3.40;1.50;;;;;;;;;;5034940;28;20410;-45
2022/09/17 11:15:13;;;;;;;2.33;1.00;;;;;;;;;;5031534;28;20475;-47
2022/09/17 11:17:48;;;;;;;2.40;1.00;;;;;;;;;;5030881;28;20473;-46
2022/09/17 11:20:14;;;;;;;1.53;0.80;;;;;;;;;;5048175;28;20412;-46
2022/09/17 11:22:59;;;;;;;1.27;0.90;;;;;;;;;;5046959;28;20381;-46
2022/09/17 11:25:34;;;;;;;2.23;1.00;;;;;;;;;;5041406;28;20412;-47
2022/09/17 11:28:03;;;;;;;1.73;0.90;;;;;;;;;;5032216;28;20397;-46
2022/09/17 11:30:38;;;;;;;1.50;0.93;;;;;;;;;;5050726;28;20396;-47
2022/09/17 11:33:27;;;;;;;5.93;1.20;;;;;;;;;;5045375;28;20407;-46
2022/09/17 11:35:58;;;;;;;3.60;1.10;;;;;;;;;;5032649;28;20550;-46
2022/09/17 11:38:28;;;;;;;2.80;1.10;;;;;;;;;;5048117;28;20481;-46
2022/09/17 11:41:16;;;;;;;1.37;1.00;;;;;;;;;;5044021;28;20452;-46
2022/09/17 11:43:43;;;;;;;2.17;0.90;;;;;;;;;;5035247;28;20427;-46
2022/09/17 11:46:16;;;;;;;2.30;1.00;;;;;;;;;;5037761;28;20535;-47
2022/09/17 11:48:43;;;;;;;1.10;0.90;;;;;;;;;;5039165;28;20984;-46
2022/09/17 11:51:24;;;;;;;1.27;0.97;;;;;;;;;;5038748;28;20500;-46
2022/09/17 11:53:57;;;;;;;0.93;0.90;;;;;;;;;;5053149;28;20422;-46
2022/09/17 11:56:25;;;;;;;1.50;0.80;;;;;;;;;;5036229;28;20395;-47
2022/09/17 11:58:53;;;;;;;1.67;1.57;;;;;;;;;;5033956;28;20549;-46
2022/09/17 12:01:31;;;;;;;1.50;1.10;;;;;;;;;;5035903;28;20406;-46
2022/09/17 12:03:59;;;;;;;0.97;0.87;;;;;;;;;;5034932;28;20439;-46
2022/09/17 12:06:31;;;;;;;1.10;0.70;;;;;;;;;;5035785;28;20497;-46
2022/09/17 12:09:03;;;;;;;1.00;0.83;;;;;;;;;;5043557;28;20967;-46
2022/09/17 12:11:32;;;;;;;1.87;1.00;;;;;;;;;;5053062;28;20417;-47
2022/09/17 12:14:04;;;;;;;1.10;0.90;;;;;;;;;;5036165;28;20424;-47
2022/09/17 12:16:33;;;;;;;3.03;1.00;;;;;;;;;;5037850;28;20430;-48
2022/09/17 12:19:03;;;;;;;1.87;0.87;;;;;;;;;;5046209;28;20457;-46
2022/09/17 12:21:32;;;;;;;3.07;0.87;;;;;;;;;;5053071;28;21207;-47
2022/09/17 12:24:01;;;;;;;1.87;0.97;;;;;;;;;;5041901;28;20436;-48
2022/09/17 12:26:31;;;;;;;3.50;1.10;;;;;;;;;;5053389;28;20424;-47
2022/09/17 12:28:57;;;;;;;1.20;0.80;;;;;;;;;;5053385;28;20912;-47
2022/09/17 12:31:41;;;;;;;3.50;1.93;;;;;;;;;;5053602;28;20423;-47
2022/09/17 12:34:13;;;;;;;2.40;1.00;;;;;;;;;;5050654;28;20447;-47
2022/09/17 12:36:52;;;;;;;4.77;1.17;;;;;;;;;;5048939;28;20487;-48
2022/09/17 12:39:36;;;;;;;1.17;0.90;;;;;;;;;;5053281;28;20435;-48
2022/09/17 12:42:15;;;;;;;1.10;1.00;;;;;;;;;;5050813;28;20424;-47
2022/09/17 12:44:47;;;;;;;1.13;0.93;;;;;;;;;;5053465;28;20419;-47
2022/09/17 12:47:32;;;;;;;4.83;1.23;;;;;;;;;;5053341;28;20482;-46
2022/09/17 12:50:03;;;;;;;4.83;1.40;;;;;;;;;;5046230;28;20424;-46
2022/09/17 12:52:44;;;;;;;2.47;1.30;;;;;;;;;;5034985;28;20393;-46
2022/09/17 12:55:28;;;;;;;1.50;1.23;;;;;;;;;;5051948;28;20384;-47
2022/09/17 12:58:03;;;;;;;3.57;1.03;;;;;;;;;;5052360;28;21008;-47
2022/09/17 13:00:32;;;;;;;5.10;1.50;;;;;;;;;;5051390;28;20419;-47
2022/09/17 13:03:12;;;;;;;5.33;1.23;;;;;;;;;;5053527;28;20857;-46
2022/09/17 13:05:46;;;;;;;2.70;1.07;;;;;;;;;;5045795;28;20414;-47
2022/09/17 13:08:36;;;;;;;5.07;1.17;;;;;;;;;;5033298;28;20760;-46
2022/09/17 13:11:17;;;;;;;5.73;1.17;;;;;;;;;;5033936;28;20438;-47
2022/09/17 13:13:53;;;;;;;7.97;1.20;;;;;;;;;;5033485;28;20406;-48
2022/09/17 13:16:19;;;;;;;4.43;1.33;;;;;;;;;;5045147;28;20472;-47
2022/09/17 13:18:57;;;;;;;3.57;1.57;;;;;;;;;;5052177;28;20518;-47
2022/09/17 13:21:32;;;;;;;5.07;1.20;;;;;;;;;;5051196;28;20421;-47
2022/09/17 13:23:58;;;;;;;6.10;1.30;;;;;;;;;;5053160;28;20400;-47
2022/09/17 13:26:38;;;;;;;2.30;1.17;;;;;;;;;;5039663;28;20445;-46
2022/09/17 13:29:08;;;;;;;2.40;1.30;;;;;;;;;;5032433;28;20406;-46
2022/09/17 13:31:34;;;;;;;4.30;1.30;;;;;;;;;;5042792;28;20559;-46
2022/09/17 13:34:03;;;;;;;3.07;1.20;;;;;;;;;;5042252;28;20419;-46
2022/09/17 13:36:33;;;;;;;1.73;1.40;;;;;;;;;;5032925;28;20426;-46
2022/09/17 13:39:00;;;;;;;4.90;1.10;;;;;;;;;;5033261;28;20461;-46
2022/09/17 13:41:26;;;;;;;2.70;1.40;;;;;;;;;;5032578;28;20405;-46
2022/09/17 13:43:54;;;;;;;4.23;1.50;;;;;;;;;;5040532;28;20420;-46
2022/09/17 13:46:24;;;;;;;2.20;1.47;;;;;;;;;;5039592;28;20417;-46
2022/09/17 13:48:53;;;;;;;4.10;1.30;;;;;;;;;;5034888;28;20405;-46
2022/09/17 13:51:31;;;;;;;9.43;1.93;;;;;;;;;;5041092;28;20438;-46
2022/09/17 13:54:02;;;;;;;9.87;2.27;;;;;;;;;;5032431;28;20390;-45
2022/09/17 13:56:30;;;;;;;4.47;1.63;;;;;;;;;;5036528;28;20507;-45
2022/09/17 13:59:05;;;;;;;4.60;1.63;;;;;;;;;;5051059;28;20546;-45
2022/09/17 14:01:50;;;;;;;3.17;1.20;;;;;;;;;;5047910;28;20422;-45
2022/09/17 14:04:34;;;;;;;3.47;1.30;;;;;;;;;;5032418;28;20658;-45
2022/09/17 14:07:00;;;;;;;3.00;1.03;;;;;;;;;;5039573;28;20468;-45
2022/09/17 14:09:45;;;;;;;4.90;1.00;;;;;;;;;;5052020;28;21113;-45
2022/09/17 14:12:30;;;;;;;4.33;1.33;;;;;;;;;;5042542;28;20929;-45
2022/09/17 14:14:56;;;;;;;6.90;1.60;;;;;;;;;;5032462;28;20953;-45
2022/09/17 14:17:41;;;;;;;3.17;1.47;;;;;;;;;;5041877;28;20989;-45
2022/09/17 14:20:07;;;;;;;6.17;1.73;;;;;;;;;;5051997;28;20399;-46
2022/09/17 14:22:33;;;;;;;5.67;1.60;;;;;;;;;;5039376;28;20515;-46
2022/09/17 14:24:59;;;;;;;3.53;1.47;;;;;;;;;;5040938;28;20492;-45
2022/09/17 14:27:25;;;;;;;5.37;1.47;;;;;;;;;;5051551;28;20435;-46
2022/09/17 14:30:00;;;;;;;1.10;1.00;;;;;;;;;;5045110;28;20412;-46
2022/09/17 14:32:31;;;;;;;1.27;1.10;;;;;;;;;;5032016;28;20427;-46
2022/09/17 14:34:57;;;;;;;3.30;1.30;;;;;;;;;;5045443;28;20430;-46
2022/09/17 14:37:23;;;;;;;4.53;1.40;;;;;;;;;;5051689;28;20540;-46
2022/09/17 14:39:51;;;;;;;1.97;0.90;;;;;;;;;;5038552;28;20402;-46
2022/09/17 14:42:22;;;;;;;1.57;1.30;;;;;;;;;;5031715;28;20409;-46
2022/09/17 14:44:50;;;;;;;2.40;1.20;;;;;;;;;;5038519;28;20420;-46
2022/09/17 14:47:18;;;;;;;6.43;1.60;;;;;;;;;;5051813;28;20403;-46
2022/09/17 14:49:45;;;;;;;2.70;1.13;;;;;;;;;;5039656;28;20476;-46
2022/09/17 14:52:29;;;;;;;2.30;1.20;;;;;;;;;;5031582;28;20402;-46
2022/09/17 14:55:10;;;;;;;1.97;1.27;;;;;;;;;;5043993;28;20426;-46